LFMK/CCF METAR and TAF weather

Enter ICAO airport designator
Station Type Date Time Source
LFMK METAR 2020/09/20 11:30 UTC NOAA

LFMK 201130Z AUTO 29008KT 230V330 9999 FEW036 24/16 Q1016 NOSIG


Station Type Date Time Source
LFMK Decoded METAR 2020/09/20 11:30 UTC NOAA

Carcassonne, France (LFMK) 43-13N 002-19E 130M
Sep 20, 2020 - 07:30 AM EDT / 2020.09.20 1130 UTC
Wind: from the WNW (290 degrees) at 9 MPH (8 KT) (direction variable):0
Visibility: greater than 7 mile(s):0
Sky conditions: mostly clear
Temperature: 75 F (24 C)
Dew Point: 60 F (16 C)
Relative Humidity: 60%
Pressure (altimeter): 30.00 in. Hg (1016 hPa)
ob: LFMK 201130Z AUTO 29008KT 230V330 9999 FEW036 24/16 Q1016 NOSIG
cycle: 11

Station Type Date Time Source
LFMK TAF 2020/09/20 09:56 UTC NOAA

TAF LFMK 200800Z 2009/2109 28010KT CAVOK
TEMPO 2018/2103 SHRA SCT020 BKN050TCU
TEMPO 2103/2109 BKN011

Example: see airport list